Terminal Aerodrome Forecast
Issued by NWS Wilmington, OH

Current Version | Previous Version | Graphics & Text | Print | Product List | Glossary On
Versions: 1 2 3 4 5 6 7 8 9 10 11 12 13 14 15 16 17 18 19 20 21 22 23 24 25 26 27 28 29 30 31
183
FTUS41 KILN 301614 AAD
TAFDAY
TAF AMD
KDAY 301614Z 3016/0112 08005KT P6SM VCSH SCT008 BKN015
      TEMPO 3016/3018 3SM -TSRA BR OVC004CB
     FM301800 12007KT P6SM -SHRA VCTS SCT005CB OVC025
     FM302000 13007KT P6SM VCSH BKN035
     FM010000 15004KT P6SM BKN040=

USA.gov is the U.S. government's official web portal to all federal, state and local government web resources and services.